sensor_id;sensor_type;location;lat;lon;timestamp;temperature;humidity
69901;DHT22;57183;50.930;5.406;2022-10-16T00:01:26;14.90;99.90
69901;DHT22;57183;50.930;5.406;2022-10-16T00:03:52;14.80;99.90
69901;DHT22;57183;50.930;5.406;2022-10-16T00:06:20;14.70;99.90
69901;DHT22;57183;50.930;5.406;2022-10-16T00:08:46;14.80;99.90
69901;DHT22;57183;50.930;5.406;2022-10-16T00:11:15;14.80;99.90
69901;DHT22;57183;50.930;5.406;2022-10-16T00:13:43;14.80;99.90
69901;DHT22;57183;50.930;5.406;2022-10-16T00:16:09;14.70;99.90
69901;DHT22;57183;50.930;5.406;2022-10-16T00:18:36;14.70;99.90
69901;DHT22;57183;50.930;5.406;2022-10-16T00:21:04;14.80;99.90
69901;DHT22;57183;50.930;5.406;2022-10-16T00:23:31;14.70;99.90
69901;DHT22;57183;50.930;5.406;2022-10-16T00:25:59;14.70;99.90
69901;DHT22;57183;50.930;5.406;2022-10-16T00:28:24;14.60;99.90
69901;DHT22;57183;50.930;5.406;2022-10-16T00:30:50;14.60;99.90
69901;DHT22;57183;50.930;5.406;2022-10-16T00:33:16;14.70;99.90
69901;DHT22;57183;50.930;5.406;2022-10-16T00:35:42;14.70;99.90
69901;DHT22;57183;50.930;5.406;2022-10-16T00:38:08;14.70;99.90
69901;DHT22;57183;50.930;5.406;2022-10-16T00:40:33;14.70;99.90
69901;DHT22;57183;50.930;5.406;2022-10-16T00:42:59;14.80;99.90
69901;DHT22;57183;50.930;5.406;2022-10-16T00:45:24;14.90;99.90
69901;DHT22;57183;50.930;5.406;2022-10-16T00:47:52;14.90;99.90
69901;DHT22;57183;50.930;5.406;2022-10-16T00:50:28;15.00;99.90
69901;DHT22;57183;50.930;5.406;2022-10-16T00:52:56;14.90;99.90
69901;DHT22;57183;50.930;5.406;2022-10-16T00:55:22;14.80;99.90
69901;DHT22;57183;50.930;5.406;2022-10-16T00:57:48;14.70;99.90
69901;DHT22;57183;50.930;5.406;2022-10-16T01:00:19;14.70;99.90
69901;DHT22;57183;50.930;5.406;2022-10-16T01:02:53;14.70;99.90
69901;DHT22;57183;50.930;5.406;2022-10-16T01:05:20;14.80;99.90
69901;DHT22;57183;50.930;5.406;2022-10-16T01:08:03;14.90;99.90
69901;DHT22;57183;50.930;5.406;2022-10-16T01:10:37;14.80;99.90
69901;DHT22;57183;50.930;5.406;2022-10-16T01:15:47;14.70;99.90
69901;DHT22;57183;50.930;5.406;2022-10-16T01:18:16;14.70;99.90
69901;DHT22;57183;50.930;5.406;2022-10-16T01:23:44;14.60;99.90
69901;DHT22;57183;50.930;5.406;2022-10-16T01:32:01;14.50;99.90
69901;DHT22;57183;50.930;5.406;2022-10-16T01:34:37;14.50;99.90
69901;DHT22;57183;50.930;5.406;2022-10-16T01:37:09;14.50;99.90
69901;DHT22;57183;50.930;5.406;2022-10-16T01:39:39;14.40;99.90
69901;DHT22;57183;50.930;5.406;2022-10-16T01:42:08;14.50;99.90
69901;DHT22;57183;50.930;5.406;2022-10-16T01:44:35;14.50;99.90
69901;DHT22;57183;50.930;5.406;2022-10-16T01:47:02;14.60;99.90
69901;DHT22;57183;50.930;5.406;2022-10-16T01:49:33;14.50;99.90
69901;DHT22;57183;50.930;5.406;2022-10-16T01:52:00;14.50;99.90
69901;DHT22;57183;50.930;5.406;2022-10-16T01:54:27;14.50;99.90
69901;DHT22;57183;50.930;5.406;2022-10-16T01:56:55;14.50;99.90
69901;DHT22;57183;50.930;5.406;2022-10-16T01:59:24;14.50;99.90
69901;DHT22;57183;50.930;5.406;2022-10-16T02:01:54;14.60;99.90
69901;DHT22;57183;50.930;5.406;2022-10-16T02:07:10;14.50;99.90
69901;DHT22;57183;50.930;5.406;2022-10-16T02:09:36;14.50;99.90
69901;DHT22;57183;50.930;5.406;2022-10-16T02:12:15;14.50;99.90
69901;DHT22;57183;50.930;5.406;2022-10-16T02:14:41;14.50;99.90
69901;DHT22;57183;50.930;5.406;2022-10-16T02:17:16;14.60;99.90
69901;DHT22;57183;50.930;5.406;2022-10-16T02:19:43;14.50;99.90
69901;DHT22;57183;50.930;5.406;2022-10-16T02:22:17;14.50;99.90
69901;DHT22;57183;50.930;5.406;2022-10-16T02:24:58;14.50;99.90
69901;DHT22;57183;50.930;5.406;2022-10-16T02:27:35;14.60;99.90
69901;DHT22;57183;50.930;5.406;2022-10-16T02:32:57;14.40;99.90
69901;DHT22;57183;50.930;5.406;2022-10-16T02:35:25;14.30;99.90
69901;DHT22;57183;50.930;5.406;2022-10-16T02:37:52;14.50;99.90
69901;DHT22;57183;50.930;5.406;2022-10-16T02:40:19;14.50;99.90
69901;DHT22;57183;50.930;5.406;2022-10-16T02:42:50;14.60;99.90
69901;DHT22;57183;50.930;5.406;2022-10-16T02:45:16;14.60;99.90
69901;DHT22;57183;50.930;5.406;2022-10-16T02:47:42;14.60;99.90
69901;DHT22;57183;50.930;5.406;2022-10-16T02:50:08;14.60;99.90
69901;DHT22;57183;50.930;5.406;2022-10-16T02:52:34;14.60;99.90
69901;DHT22;57183;50.930;5.406;2022-10-16T02:54:59;14.60;99.90
69901;DHT22;57183;50.930;5.406;2022-10-16T02:57:25;14.40;99.90
69901;DHT22;57183;50.930;5.406;2022-10-16T02:59:51;14.40;99.90
69901;DHT22;57183;50.930;5.406;2022-10-16T03:02:17;14.30;99.90
69901;DHT22;57183;50.930;5.406;2022-10-16T03:04:42;14.50;99.90
69901;DHT22;57183;50.930;5.406;2022-10-16T03:07:08;14.50;99.90
69901;DHT22;57183;50.930;5.406;2022-10-16T03:09:34;14.50;99.90
69901;DHT22;57183;50.930;5.406;2022-10-16T03:11:59;14.50;99.90
69901;DHT22;57183;50.930;5.406;2022-10-16T03:14:25;14.50;99.90
69901;DHT22;57183;50.930;5.406;2022-10-16T03:16:51;14.50;99.90
69901;DHT22;57183;50.930;5.406;2022-10-16T03:19:17;14.40;99.90
69901;DHT22;57183;50.930;5.406;2022-10-16T03:21:43;14.30;99.90
69901;DHT22;57183;50.930;5.406;2022-10-16T03:24:09;14.30;99.90
69901;DHT22;57183;50.930;5.406;2022-10-16T03:26:34;14.30;99.90
69901;DHT22;57183;50.930;5.406;2022-10-16T03:29:00;14.50;99.90
69901;DHT22;57183;50.930;5.406;2022-10-16T03:31:28;14.50;99.90
69901;DHT22;57183;50.930;5.406;2022-10-16T03:33:53;14.40;99.90
69901;DHT22;57183;50.930;5.406;2022-10-16T03:36:19;14.30;99.90
69901;DHT22;57183;50.930;5.406;2022-10-16T03:38:44;14.50;99.90
69901;DHT22;57183;50.930;5.406;2022-10-16T03:41:10;14.40;99.90
69901;DHT22;57183;50.930;5.406;2022-10-16T03:43:36;14.40;99.90
69901;DHT22;57183;50.930;5.406;2022-10-16T03:46:01;14.30;99.90
69901;DHT22;57183;50.930;5.406;2022-10-16T03:48:27;14.40;99.90
69901;DHT22;57183;50.930;5.406;2022-10-16T03:50:52;14.50;99.90
69901;DHT22;57183;50.930;5.406;2022-10-16T03:53:18;14.60;99.90
69901;DHT22;57183;50.930;5.406;2022-10-16T03:55:44;14.50;99.90
69901;DHT22;57183;50.930;5.406;2022-10-16T03:58:10;14.50;99.90
69901;DHT22;57183;50.930;5.406;2022-10-16T04:00:40;14.50;99.90
69901;DHT22;57183;50.930;5.406;2022-10-16T04:03:06;14.50;99.90
69901;DHT22;57183;50.930;5.406;2022-10-16T04:05:32;14.40;99.90
69901;DHT22;57183;50.930;5.406;2022-10-16T04:07:58;14.50;99.90
69901;DHT22;57183;50.930;5.406;2022-10-16T04:10:23;14.50;99.90
69901;DHT22;57183;50.930;5.406;2022-10-16T04:12:49;14.40;99.90
69901;DHT22;57183;50.930;5.406;2022-10-16T04:15:15;14.40;99.90
69901;DHT22;57183;50.930;5.406;2022-10-16T04:17:40;14.30;99.90
69901;DHT22;57183;50.930;5.406;2022-10-16T04:20:06;14.40;99.90
69901;DHT22;57183;50.930;5.406;2022-10-16T04:22:32;14.30;99.90
69901;DHT22;57183;50.930;5.406;2022-10-16T04:24:58;14.30;99.90
69901;DHT22;57183;50.930;5.406;2022-10-16T04:27:23;14.30;99.90
69901;DHT22;57183;50.930;5.406;2022-10-16T04:29:49;14.30;99.90
69901;DHT22;57183;50.930;5.406;2022-10-16T04:32:15;14.20;99.90
69901;DHT22;57183;50.930;5.406;2022-10-16T04:34:40;14.20;99.90
69901;DHT22;57183;50.930;5.406;2022-10-16T04:37:06;14.20;99.90
69901;DHT22;57183;50.930;5.406;2022-10-16T04:39:32;14.30;99.90
69901;DHT22;57183;50.930;5.406;2022-10-16T04:41:58;14.40;99.90
69901;DHT22;57183;50.930;5.406;2022-10-16T04:44:23;14.40;99.90
69901;DHT22;57183;50.930;5.406;2022-10-16T04:46:52;14.40;99.90
69901;DHT22;57183;50.930;5.406;2022-10-16T04:49:18;14.40;99.90
69901;DHT22;57183;50.930;5.406;2022-10-16T04:51:43;14.30;99.90
69901;DHT22;57183;50.930;5.406;2022-10-16T04:54:10;14.30;99.90
69901;DHT22;57183;50.930;5.406;2022-10-16T04:56:35;14.30;99.90
69901;DHT22;57183;50.930;5.406;2022-10-16T04:59:09;14.20;99.90
69901;DHT22;57183;50.930;5.406;2022-10-16T05:01:34;14.20;99.90
69901;DHT22;57183;50.930;5.406;2022-10-16T05:04:00;14.20;99.90
69901;DHT22;57183;50.930;5.406;2022-10-16T05:06:26;14.30;99.90
69901;DHT22;57183;50.930;5.406;2022-10-16T05:08:52;14.20;99.90
69901;DHT22;57183;50.930;5.406;2022-10-16T05:11:17;14.40;99.90
69901;DHT22;57183;50.930;5.406;2022-10-16T05:13:43;14.40;99.90
69901;DHT22;57183;50.930;5.406;2022-10-16T05:16:09;14.40;99.90
69901;DHT22;57183;50.930;5.406;2022-10-16T05:18:34;14.40;99.90
69901;DHT22;57183;50.930;5.406;2022-10-16T05:21:00;14.40;99.90
69901;DHT22;57183;50.930;5.406;2022-10-16T05:23:26;14.40;99.90
69901;DHT22;57183;50.930;5.406;2022-10-16T05:25:53;14.30;99.90
69901;DHT22;57183;50.930;5.406;2022-10-16T05:28:19;14.30;99.90
69901;DHT22;57183;50.930;5.406;2022-10-16T05:30:45;14.20;99.90
69901;DHT22;57183;50.930;5.406;2022-10-16T05:33:11;14.20;99.90
69901;DHT22;57183;50.930;5.406;2022-10-16T05:35:37;14.30;99.90
69901;DHT22;57183;50.930;5.406;2022-10-16T05:38:02;14.30;99.90
69901;DHT22;57183;50.930;5.406;2022-10-16T05:40:28;14.10;99.90
69901;DHT22;57183;50.930;5.406;2022-10-16T05:42:57;14.30;99.90
69901;DHT22;57183;50.930;5.406;2022-10-16T05:45:22;14.40;99.90
69901;DHT22;57183;50.930;5.406;2022-10-16T05:47:48;14.30;99.90
69901;DHT22;57183;50.930;5.406;2022-10-16T05:50:14;14.40;99.90
69901;DHT22;57183;50.930;5.406;2022-10-16T05:52:39;14.30;99.90
69901;DHT22;57183;50.930;5.406;2022-10-16T05:55:05;14.20;99.90
69901;DHT22;57183;50.930;5.406;2022-10-16T05:57:31;14.20;99.90
69901;DHT22;57183;50.930;5.406;2022-10-16T05:59:57;14.10;99.90
69901;DHT22;57183;50.930;5.406;2022-10-16T06:02:22;14.10;99.90
69901;DHT22;57183;50.930;5.406;2022-10-16T06:04:48;14.10;99.90
69901;DHT22;57183;50.930;5.406;2022-10-16T06:07:14;14.10;99.90
69901;DHT22;57183;50.930;5.406;2022-10-16T06:09:40;14.00;99.90
69901;DHT22;57183;50.930;5.406;2022-10-16T06:12:05;14.10;99.90
69901;DHT22;57183;50.930;5.406;2022-10-16T06:14:31;14.00;99.90
69901;DHT22;57183;50.930;5.406;2022-10-16T06:16:57;14.00;99.90
69901;DHT22;57183;50.930;5.406;2022-10-16T06:19:23;14.10;99.90
69901;DHT22;57183;50.930;5.406;2022-10-16T06:21:49;14.10;99.90
69901;DHT22;57183;50.930;5.406;2022-10-16T06:24:14;14.10;99.90
69901;DHT22;57183;50.930;5.406;2022-10-16T06:26:40;14.00;99.90
69901;DHT22;57183;50.930;5.406;2022-10-16T06:29:06;14.00;99.90
69901;DHT22;57183;50.930;5.406;2022-10-16T06:31:31;14.00;99.90
69901;DHT22;57183;50.930;5.406;2022-10-16T06:33:59;14.00;99.90
69901;DHT22;57183;50.930;5.406;2022-10-16T06:36:26;14.00;99.90
69901;DHT22;57183;50.930;5.406;2022-10-16T06:38:51;14.10;99.90
69901;DHT22;57183;50.930;5.406;2022-10-16T06:41:20;14.20;99.90
69901;DHT22;57183;50.930;5.406;2022-10-16T06:43:46;14.10;99.90
69901;DHT22;57183;50.930;5.406;2022-10-16T06:46:13;14.30;99.90
69901;DHT22;57183;50.930;5.406;2022-10-16T06:48:39;14.10;99.90
69901;DHT22;57183;50.930;5.406;2022-10-16T06:51:08;14.20;99.90
69901;DHT22;57183;50.930;5.406;2022-10-16T06:53:37;14.20;99.90
69901;DHT22;57183;50.930;5.406;2022-10-16T06:56:16;14.20;99.90
69901;DHT22;57183;50.930;5.406;2022-10-16T06:58:42;14.20;99.90
69901;DHT22;57183;50.930;5.406;2022-10-16T07:01:09;14.30;99.90
69901;DHT22;57183;50.930;5.406;2022-10-16T07:03:37;14.30;99.90
69901;DHT22;57183;50.930;5.406;2022-10-16T07:06:05;14.10;99.90
69901;DHT22;57183;50.930;5.406;2022-10-16T07:08:35;14.10;99.90
69901;DHT22;57183;50.930;5.406;2022-10-16T07:11:04;14.10;99.90
69901;DHT22;57183;50.930;5.406;2022-10-16T07:13:32;14.20;99.90
69901;DHT22;57183;50.930;5.406;2022-10-16T07:15:58;14.40;99.90
69901;DHT22;57183;50.930;5.406;2022-10-16T07:18:23;14.60;99.90
69901;DHT22;57183;50.930;5.406;2022-10-16T07:20:52;14.70;99.90
69901;DHT22;57183;50.930;5.406;2022-10-16T07:23:18;14.80;99.90
69901;DHT22;57183;50.930;5.406;2022-10-16T07:25:43;14.80;99.90
69901;DHT22;57183;50.930;5.406;2022-10-16T07:28:09;14.80;99.90
69901;DHT22;57183;50.930;5.406;2022-10-16T07:30:35;14.90;99.90
69901;DHT22;57183;50.930;5.406;2022-10-16T07:33:02;15.00;99.90
69901;DHT22;57183;50.930;5.406;2022-10-16T07:35:28;15.10;99.90
69901;DHT22;57183;50.930;5.406;2022-10-16T07:37:54;15.20;99.90
69901;DHT22;57183;50.930;5.406;2022-10-16T07:40:21;15.20;99.90
69901;DHT22;57183;50.930;5.406;2022-10-16T07:42:47;15.30;99.90
69901;DHT22;57183;50.930;5.406;2022-10-16T07:45:12;15.30;99.90
69901;DHT22;57183;50.930;5.406;2022-10-16T07:47:38;15.40;99.90
69901;DHT22;57183;50.930;5.406;2022-10-16T07:50:04;15.30;99.90
69901;DHT22;57183;50.930;5.406;2022-10-16T07:52:30;15.30;99.90
69901;DHT22;57183;50.930;5.406;2022-10-16T07:54:55;15.40;99.90
69901;DHT22;57183;50.930;5.406;2022-10-16T07:57:21;15.40;99.90
69901;DHT22;57183;50.930;5.406;2022-10-16T07:59:46;15.40;99.90
69901;DHT22;57183;50.930;5.406;2022-10-16T08:02:12;15.40;99.90
69901;DHT22;57183;50.930;5.406;2022-10-16T08:04:38;15.40;99.90
69901;DHT22;57183;50.930;5.406;2022-10-16T08:07:03;15.50;99.90
69901;DHT22;57183;50.930;5.406;2022-10-16T08:09:29;15.60;99.90
69901;DHT22;57183;50.930;5.406;2022-10-16T08:11:55;15.70;99.90
69901;DHT22;57183;50.930;5.406;2022-10-16T08:14:20;15.90;99.90
69901;DHT22;57183;50.930;5.406;2022-10-16T08:16:46;16.00;99.90
69901;DHT22;57183;50.930;5.406;2022-10-16T08:19:12;16.00;99.90
69901;DHT22;57183;50.930;5.406;2022-10-16T08:21:37;16.20;99.90
69901;DHT22;57183;50.930;5.406;2022-10-16T08:24:03;16.20;99.90
69901;DHT22;57183;50.930;5.406;2022-10-16T08:26:29;16.20;99.90
69901;DHT22;57183;50.930;5.406;2022-10-16T08:28:55;16.30;99.90
69901;DHT22;57183;50.930;5.406;2022-10-16T08:31:21;16.30;99.90
69901;DHT22;57183;50.930;5.406;2022-10-16T08:33:48;16.30;99.90
69901;DHT22;57183;50.930;5.406;2022-10-16T08:36:14;16.30;99.90
69901;DHT22;57183;50.930;5.406;2022-10-16T08:38:40;16.40;99.90
69901;DHT22;57183;50.930;5.406;2022-10-16T08:49:16;16.70;99.90
69901;DHT22;57183;50.930;5.406;2022-10-16T08:51:43;16.70;99.90
69901;DHT22;57183;50.930;5.406;2022-10-16T08:54:15;16.70;99.90
69901;DHT22;57183;50.930;5.406;2022-10-16T08:56:44;16.80;99.90
69901;DHT22;57183;50.930;5.406;2022-10-16T08:59:10;16.80;99.90
69901;DHT22;57183;50.930;5.406;2022-10-16T09:01:49;16.80;99.90
69901;DHT22;57183;50.930;5.406;2022-10-16T09:07:15;16.80;99.90
69901;DHT22;57183;50.930;5.406;2022-10-16T09:10:09;16.80;99.90
69901;DHT22;57183;50.930;5.406;2022-10-16T09:12:44;16.80;99.90
69901;DHT22;57183;50.930;5.406;2022-10-16T09:21:21;17.00;99.90
69901;DHT22;57183;50.930;5.406;2022-10-16T09:23:45;17.00;99.90
69901;DHT22;57183;50.930;5.406;2022-10-16T09:26:13;17.00;99.90
69901;DHT22;57183;50.930;5.406;2022-10-16T09:28:39;17.10;99.90
69901;DHT22;57183;50.930;5.406;2022-10-16T09:31:05;17.20;99.90
69901;DHT22;57183;50.930;5.406;2022-10-16T09:33:35;17.30;99.90
69901;DHT22;57183;50.930;5.406;2022-10-16T09:36:03;17.40;99.90
69901;DHT22;57183;50.930;5.406;2022-10-16T09:38:32;17.50;99.90
69901;DHT22;57183;50.930;5.406;2022-10-16T09:41:02;17.60;99.90
69901;DHT22;57183;50.930;5.406;2022-10-16T09:43:36;17.70;99.90
69901;DHT22;57183;50.930;5.406;2022-10-16T09:46:19;17.80;99.90
69901;DHT22;57183;50.930;5.406;2022-10-16T09:48:50;17.80;99.90
69901;DHT22;57183;50.930;5.406;2022-10-16T09:51:30;17.80;99.90
69901;DHT22;57183;50.930;5.406;2022-10-16T09:54:02;17.80;99.90
69901;DHT22;57183;50.930;5.406;2022-10-16T09:56:30;17.80;99.90
69901;DHT22;57183;50.930;5.406;2022-10-16T09:59:44;17.80;99.90
69901;DHT22;57183;50.930;5.406;2022-10-16T10:01:53;18.00;99.90
69901;DHT22;57183;50.930;5.406;2022-10-16T10:04:23;18.10;99.90
69901;DHT22;57183;50.930;5.406;2022-10-16T10:06:51;17.90;99.90
69901;DHT22;57183;50.930;5.406;2022-10-16T10:11:59;17.90;99.90
69901;DHT22;57183;50.930;5.406;2022-10-16T10:17:11;18.00;99.90
69901;DHT22;57183;50.930;5.406;2022-10-16T10:22:18;18.10;99.90
69901;DHT22;57183;50.930;5.406;2022-10-16T10:24:59;18.00;99.90
69901;DHT22;57183;50.930;5.406;2022-10-16T10:27:52;18.10;99.90
69901;DHT22;57183;50.930;5.406;2022-10-16T10:33:29;18.50;99.90
69901;DHT22;57183;50.930;5.406;2022-10-16T10:44:16;18.30;99.90
69901;DHT22;57183;50.930;5.406;2022-10-16T10:47:00;18.30;99.90
69901;DHT22;57183;50.930;5.406;2022-10-16T10:49:57;18.30;99.90
69901;DHT22;57183;50.930;5.406;2022-10-16T10:58:46;18.30;99.90
69901;DHT22;57183;50.930;5.406;2022-10-16T11:01:22;18.40;99.90
69901;DHT22;57183;50.930;5.406;2022-10-16T11:06:32;18.70;99.90
69901;DHT22;57183;50.930;5.406;2022-10-16T11:11:54;18.90;99.90
69901;DHT22;57183;50.930;5.406;2022-10-16T11:17:39;19.40;99.90
69901;DHT22;57183;50.930;5.406;2022-10-16T11:20:25;19.50;99.90
69901;DHT22;57183;50.930;5.406;2022-10-16T11:23:11;19.60;99.90
69901;DHT22;57183;50.930;5.406;2022-10-16T11:25:40;19.70;99.90
69901;DHT22;57183;50.930;5.406;2022-10-16T11:28:29;19.70;99.90
69901;DHT22;57183;50.930;5.406;2022-10-16T11:31:08;19.80;99.90
69901;DHT22;57183;50.930;5.406;2022-10-16T11:33:41;20.00;99.90
69901;DHT22;57183;50.930;5.406;2022-10-16T11:36:23;19.90;99.90
69901;DHT22;57183;50.930;5.406;2022-10-16T11:44:24;20.00;99.90
69901;DHT22;57183;50.930;5.406;2022-10-16T11:47:10;19.90;99.90
69901;DHT22;57183;50.930;5.406;2022-10-16T11:49:39;20.00;99.90
69901;DHT22;57183;50.930;5.406;2022-10-16T11:52:15;20.10;99.90
69901;DHT22;57183;50.930;5.406;2022-10-16T11:57:42;20.20;99.90
69901;DHT22;57183;50.930;5.406;2022-10-16T12:05:28;19.90;99.90
69901;DHT22;57183;50.930;5.406;2022-10-16T12:08:11;19.90;99.90
69901;DHT22;57183;50.930;5.406;2022-10-16T12:10:40;19.90;99.90
69901;DHT22;57183;50.930;5.406;2022-10-16T12:13:32;20.10;99.90
69901;DHT22;57183;50.930;5.406;2022-10-16T12:16:06;20.30;99.90
69901;DHT22;57183;50.930;5.406;2022-10-16T12:18:32;20.40;99.90
69901;DHT22;57183;50.930;5.406;2022-10-16T12:20:58;20.50;99.90
69901;DHT22;57183;50.930;5.406;2022-10-16T12:23:24;20.60;99.90
69901;DHT22;57183;50.930;5.406;2022-10-16T12:25:55;20.60;99.90
69901;DHT22;57183;50.930;5.406;2022-10-16T12:28:26;20.70;99.90
69901;DHT22;57183;50.930;5.406;2022-10-16T12:31:05;20.60;99.90
69901;DHT22;57183;50.930;5.406;2022-10-16T12:33:35;20.80;99.90
69901;DHT22;57183;50.930;5.406;2022-10-16T12:36:04;21.10;99.90
69901;DHT22;57183;50.930;5.406;2022-10-16T12:41:25;21.40;99.90
69901;DHT22;57183;50.930;5.406;2022-10-16T12:43:51;21.60;99.90
69901;DHT22;57183;50.930;5.406;2022-10-16T12:48:43;21.60;99.90
69901;DHT22;57183;50.930;5.406;2022-10-16T12:54:09;21.60;99.90
69901;DHT22;57183;50.930;5.406;2022-10-16T12:59:28;21.60;99.90
69901;DHT22;57183;50.930;5.406;2022-10-16T13:24:42;21.30;99.90
69901;DHT22;57183;50.930;5.406;2022-10-16T13:30:08;21.10;99.90
69901;DHT22;57183;50.930;5.406;2022-10-16T13:32:34;20.80;99.90
69901;DHT22;57183;50.930;5.406;2022-10-16T13:35:00;20.80;99.90
69901;DHT22;57183;50.930;5.406;2022-10-16T13:37:26;20.70;99.90
69901;DHT22;57183;50.930;5.406;2022-10-16T13:40:12;20.70;99.90
69901;DHT22;57183;50.930;5.406;2022-10-16T13:42:42;20.80;99.90
69901;DHT22;57183;50.930;5.406;2022-10-16T13:45:21;20.80;99.90
69901;DHT22;57183;50.930;5.406;2022-10-16T13:47:47;20.90;99.90
69901;DHT22;57183;50.930;5.406;2022-10-16T13:50:16;21.00;99.90
69901;DHT22;57183;50.930;5.406;2022-10-16T13:52:42;20.80;99.90
69901;DHT22;57183;50.930;5.406;2022-10-16T13:55:17;20.60;99.90
69901;DHT22;57183;50.930;5.406;2022-10-16T13:57:43;20.50;99.90
69901;DHT22;57183;50.930;5.406;2022-10-16T14:00:23;20.40;99.90
69901;DHT22;57183;50.930;5.406;2022-10-16T14:03:03;20.30;99.90
69901;DHT22;57183;50.930;5.406;2022-10-16T14:05:29;20.30;99.90
69901;DHT22;57183;50.930;5.406;2022-10-16T14:07:56;20.30;99.90
69901;DHT22;57183;50.930;5.406;2022-10-16T14:10:27;20.40;99.90
69901;DHT22;57183;50.930;5.406;2022-10-16T14:13:06;20.60;99.90
69901;DHT22;57183;50.930;5.406;2022-10-16T14:15:35;20.90;99.90
69901;DHT22;57183;50.930;5.406;2022-10-16T14:18:02;20.90;99.90
69901;DHT22;57183;50.930;5.406;2022-10-16T14:20:33;21.00;99.90
69901;DHT22;57183;50.930;5.406;2022-10-16T14:23:23;21.00;99.90
69901;DHT22;57183;50.930;5.406;2022-10-16T14:25:53;20.80;99.90
69901;DHT22;57183;50.930;5.406;2022-10-16T14:28:21;20.80;99.90
69901;DHT22;57183;50.930;5.406;2022-10-16T14:30:55;20.80;99.90
69901;DHT22;57183;50.930;5.406;2022-10-16T14:33:39;20.70;99.90
69901;DHT22;57183;50.930;5.406;2022-10-16T14:36:13;20.70;99.90
69901;DHT22;57183;50.930;5.406;2022-10-16T14:38:49;20.60;99.90
69901;DHT22;57183;50.930;5.406;2022-10-16T14:41:21;20.70;99.90
69901;DHT22;57183;50.930;5.406;2022-10-16T14:43:51;20.60;99.90
69901;DHT22;57183;50.930;5.406;2022-10-16T14:46:22;20.40;99.90
69901;DHT22;57183;50.930;5.406;2022-10-16T14:49:04;20.30;99.90
69901;DHT22;57183;50.930;5.406;2022-10-16T14:51:39;20.30;99.90
69901;DHT22;57183;50.930;5.406;2022-10-16T14:54:11;20.30;99.90
69901;DHT22;57183;50.930;5.406;2022-10-16T14:56:56;20.30;99.90
69901;DHT22;57183;50.930;5.406;2022-10-16T14:59:35;20.20;99.90
69901;DHT22;57183;50.930;5.406;2022-10-16T15:04:48;20.10;99.90
69901;DHT22;57183;50.930;5.406;2022-10-16T15:07:13;20.10;99.90
69901;DHT22;57183;50.930;5.406;2022-10-16T15:09:39;20.10;99.90
69901;DHT22;57183;50.930;5.406;2022-10-16T15:12:05;20.20;99.90
69901;DHT22;57183;50.930;5.406;2022-10-16T15:14:31;20.20;99.90
69901;DHT22;57183;50.930;5.406;2022-10-16T15:16:57;20.10;99.90
69901;DHT22;57183;50.930;5.406;2022-10-16T15:19:22;20.20;99.90
69901;DHT22;57183;50.930;5.406;2022-10-16T15:21:48;20.20;99.90
69901;DHT22;57183;50.930;5.406;2022-10-16T15:24:14;20.20;99.90
69901;DHT22;57183;50.930;5.406;2022-10-16T15:26:40;20.30;99.90
69901;DHT22;57183;50.930;5.406;2022-10-16T15:29:06;20.10;99.90
69901;DHT22;57183;50.930;5.406;2022-10-16T15:31:32;20.00;99.90
69901;DHT22;57183;50.930;5.406;2022-10-16T15:33:58;19.90;99.90
69901;DHT22;57183;50.930;5.406;2022-10-16T15:36:31;19.90;99.90
69901;DHT22;57183;50.930;5.406;2022-10-16T15:38:59;19.80;99.90
69901;DHT22;57183;50.930;5.406;2022-10-16T15:41:25;19.70;99.90
69901;DHT22;57183;50.930;5.406;2022-10-16T15:43:51;19.60;99.90
69901;DHT22;57183;50.930;5.406;2022-10-16T15:46:21;19.50;99.90
69901;DHT22;57183;50.930;5.406;2022-10-16T15:48:56;19.40;99.90
69901;DHT22;57183;50.930;5.406;2022-10-16T15:51:22;19.30;99.90
69901;DHT22;57183;50.930;5.406;2022-10-16T15:53:47;19.20;99.90
69901;DHT22;57183;50.930;5.406;2022-10-16T15:56:14;19.20;99.90
69901;DHT22;57183;50.930;5.406;2022-10-16T15:58:39;19.10;99.90
69901;DHT22;57183;50.930;5.406;2022-10-16T16:01:05;18.90;99.90
69901;DHT22;57183;50.930;5.406;2022-10-16T16:03:31;18.80;99.90
69901;DHT22;57183;50.930;5.406;2022-10-16T16:05:58;18.70;99.90
69901;DHT22;57183;50.930;5.406;2022-10-16T16:08:28;18.50;99.90
69901;DHT22;57183;50.930;5.406;2022-10-16T16:11:01;18.60;99.90
69901;DHT22;57183;50.930;5.406;2022-10-16T16:13:27;18.60;99.90
69901;DHT22;57183;50.930;5.406;2022-10-16T16:15:53;18.50;99.90
69901;DHT22;57183;50.930;5.406;2022-10-16T16:18:19;18.40;99.90
69901;DHT22;57183;50.930;5.406;2022-10-16T16:20:44;18.30;99.90
69901;DHT22;57183;50.930;5.406;2022-10-16T16:23:10;18.30;99.90
69901;DHT22;57183;50.930;5.406;2022-10-16T16:25:36;18.40;99.90
69901;DHT22;57183;50.930;5.406;2022-10-16T16:28:01;18.30;99.90
69901;DHT22;57183;50.930;5.406;2022-10-16T16:30:27;18.20;99.90
69901;DHT22;57183;50.930;5.406;2022-10-16T16:32:53;18.10;99.90
69901;DHT22;57183;50.930;5.406;2022-10-16T16:35:18;18.00;99.90
69901;DHT22;57183;50.930;5.406;2022-10-16T16:37:44;18.00;99.90
69901;DHT22;57183;50.930;5.406;2022-10-16T16:40:10;17.90;99.90
69901;DHT22;57183;50.930;5.406;2022-10-16T16:42:35;17.90;99.90
69901;DHT22;57183;50.930;5.406;2022-10-16T16:45:01;17.80;99.90
69901;DHT22;57183;50.930;5.406;2022-10-16T16:47:27;17.80;99.90
69901;DHT22;57183;50.930;5.406;2022-10-16T16:49:53;17.70;99.90
69901;DHT22;57183;50.930;5.406;2022-10-16T16:52:18;17.70;99.90
69901;DHT22;57183;50.930;5.406;2022-10-16T16:54:44;17.70;99.90
69901;DHT22;57183;50.930;5.406;2022-10-16T16:57:17;17.60;99.90
69901;DHT22;57183;50.930;5.406;2022-10-16T16:59:43;17.50;99.90
69901;DHT22;57183;50.930;5.406;2022-10-16T17:02:09;17.50;99.90
69901;DHT22;57183;50.930;5.406;2022-10-16T17:04:34;17.40;99.90
69901;DHT22;57183;50.930;5.406;2022-10-16T17:07:00;17.50;99.90
69901;DHT22;57183;50.930;5.406;2022-10-16T17:09:26;17.30;99.90
69901;DHT22;57183;50.930;5.406;2022-10-16T17:11:52;17.30;99.90
69901;DHT22;57183;50.930;5.406;2022-10-16T17:14:17;17.30;99.90
69901;DHT22;57183;50.930;5.406;2022-10-16T17:16:43;17.30;99.90
69901;DHT22;57183;50.930;5.406;2022-10-16T17:19:13;17.20;99.90
69901;DHT22;57183;50.930;5.406;2022-10-16T17:21:39;17.20;99.90
69901;DHT22;57183;50.930;5.406;2022-10-16T17:24:05;17.10;99.90
69901;DHT22;57183;50.930;5.406;2022-10-16T17:26:32;17.10;99.90
69901;DHT22;57183;50.930;5.406;2022-10-16T17:29:00;17.10;99.90
69901;DHT22;57183;50.930;5.406;2022-10-16T17:31:28;17.00;99.90
69901;DHT22;57183;50.930;5.406;2022-10-16T17:33:55;17.00;99.90
69901;DHT22;57183;50.930;5.406;2022-10-16T17:36:21;17.00;99.90
69901;DHT22;57183;50.930;5.406;2022-10-16T17:38:48;17.10;99.90
69901;DHT22;57183;50.930;5.406;2022-10-16T17:41:22;17.10;99.90